createdAt,value
2018-11-27T00:00:15.428Z,2.888
2018-11-27T00:03:15.607Z,3.912
2018-11-27T00:06:14.995Z,7.250
2018-11-27T00:09:15.532Z,5.125
2018-11-27T00:12:15.138Z,4.138
2018-11-27T00:15:15.856Z,2.388
2018-11-27T00:18:15.630Z,2.975
2018-11-27T00:21:15.148Z,2.237
2018-11-27T00:24:15.774Z,3.325
2018-11-27T00:27:15.415Z,1.850
2018-11-27T00:30:15.134Z,5.100
2018-11-27T00:33:15.795Z,3.975
2018-11-27T00:36:15.506Z,3.800
2018-11-27T00:39:15.124Z,3.613
2018-11-27T00:42:15.823Z,2.625
2018-11-27T00:45:15.544Z,1.600
2018-11-27T00:48:15.251Z,1.387
2018-11-27T00:51:15.773Z,2.275
2018-11-27T00:54:15.489Z,2.900
2018-11-27T00:57:15.142Z,2.375
2018-11-27T01:00:15.783Z,2.812
2018-11-27T01:03:15.902Z,2.788
2018-11-27T01:06:15.520Z,2.688
2018-11-27T01:09:15.175Z,1.650
2018-11-27T01:12:15.923Z,0.937
2018-11-27T01:15:15.457Z,3.600
2018-11-27T01:18:15.356Z,2.213
2018-11-27T01:21:14.888Z,1.975
2018-11-27T01:24:15.610Z,2.288
2018-11-27T01:27:15.198Z,1.862
2018-11-27T01:30:15.946Z,2.100
2018-11-27T01:33:15.553Z,2.825
2018-11-27T01:36:15.319Z,1.487
2018-11-27T01:39:15.950Z,2.950
2018-11-27T01:42:15.654Z,1.388
2018-11-27T01:45:15.324Z,1.787
2018-11-27T01:48:15.449Z,2.125
2018-11-27T01:51:15.115Z,4.188
2018-11-27T01:54:15.895Z,3.100
2018-11-27T01:57:15.476Z,1.212
2018-11-27T02:00:15.267Z,3.487
2018-11-27T02:03:14.929Z,3.613
2018-11-27T02:06:15.552Z,0.850
2018-11-27T02:09:15.253Z,1.837
2018-11-27T02:12:15.028Z,2.112
2018-11-27T02:15:15.841Z,3.763
2018-11-27T02:18:15.764Z,1.888
2018-11-27T02:21:15.439Z,1.688
2018-11-27T02:24:15.212Z,2.025
2018-11-27T02:27:14.957Z,2.075
2018-11-27T02:30:15.716Z,1.637
2018-11-27T02:33:15.372Z,2.550
2018-11-27T02:36:14.953Z,2.000
2018-11-27T02:39:15.652Z,1.738
2018-11-27T02:42:15.455Z,2.100
2018-11-27T02:45:15.157Z,1.487
2018-11-27T02:48:14.975Z,3.025
2018-11-27T02:51:15.501Z,2.537
2018-11-27T02:54:15.144Z,2.112
2018-11-27T02:57:15.792Z,3.388
2018-11-27T03:00:15.530Z,1.688
2018-11-27T03:03:15.718Z,1.200
2018-11-27T03:06:15.323Z,1.712
2018-11-27T03:09:14.933Z,3.400
2018-11-27T03:12:15.804Z,1.312
2018-11-27T03:15:15.396Z,1.625
2018-11-27T03:18:15.219Z,1.938
2018-11-27T03:21:15.025Z,3.062
2018-11-27T03:24:15.750Z,2.400
2018-11-27T03:27:15.412Z,1.800
2018-11-27T03:30:15.088Z,4.112
2018-11-27T03:33:15.571Z,3.900
2018-11-27T03:36:15.293Z,3.800
2018-11-27T03:39:14.986Z,2.675
2018-11-27T03:42:15.766Z,1.525
2018-11-27T03:45:15.528Z,3.625
2018-11-27T03:48:15.786Z,3.888
2018-11-27T03:51:15.514Z,2.513
2018-11-27T03:54:15.301Z,3.337
2018-11-27T03:57:15.283Z,3.550
2018-11-27T04:00:15.071Z,3.138
2018-11-27T04:03:15.929Z,2.163
2018-11-27T04:06:15.794Z,1.200
2018-11-27T04:09:15.702Z,1.838
2018-11-27T04:12:15.511Z,3.263
2018-11-27T04:15:15.169Z,1.050
2018-11-27T04:18:14.972Z,3.388
2018-11-27T04:21:15.784Z,2.300
2018-11-27T04:24:15.655Z,2.375
2018-11-27T04:27:15.453Z,2.800
2018-11-27T04:30:15.271Z,2.775
2018-11-27T04:33:15.263Z,0.963
2018-11-27T04:36:14.926Z,2.750
2018-11-27T04:39:15.738Z,1.875
2018-11-27T04:42:15.384Z,2.638
2018-11-27T04:45:15.139Z,0.925
2018-11-27T04:48:15.880Z,2.263
2018-11-27T04:51:15.126Z,1.250
2018-11-27T04:54:15.056Z,3.175
2018-11-27T04:57:15.423Z,1.500
2018-11-27T05:00:15.154Z,2.150
2018-11-27T05:03:15.221Z,2.925
2018-11-27T05:06:15.230Z,3.000
2018-11-27T05:09:14.996Z,2.000
2018-11-27T05:12:15.722Z,1.600
2018-11-27T05:15:15.462Z,3.025
2018-11-27T05:18:15.244Z,1.075
2018-11-27T05:21:14.992Z,2.537
2018-11-27T05:24:15.712Z,3.100
2018-11-27T05:27:15.818Z,1.850
2018-11-27T05:30:15.480Z,5.312
2018-11-27T05:33:15.400Z,2.550
2018-11-27T05:36:15.302Z,1.900
2018-11-27T05:39:15.115Z,2.538
2018-11-27T05:42:15.873Z,2.450
2018-11-27T05:45:15.562Z,1.713
2018-11-27T05:48:15.869Z,2.825
2018-11-27T05:51:15.716Z,3.688
2018-11-27T05:54:15.296Z,3.300
2018-11-27T05:57:14.998Z,3.263
2018-11-27T06:00:15.961Z,2.000
2018-11-27T06:03:15.947Z,4.512
2018-11-27T06:06:15.915Z,2.600
2018-11-27T06:09:15.681Z,3.400
2018-11-27T06:12:15.588Z,3.650
2018-11-27T06:15:15.364Z,2.362
2018-11-27T06:18:15.271Z,4.075
2018-11-27T06:21:15.122Z,3.600
2018-11-27T06:24:14.898Z,3.863
2018-11-27T06:27:15.671Z,1.838
2018-11-27T06:30:15.326Z,3.838
2018-11-27T06:33:15.345Z,3.788
2018-11-27T06:36:15.308Z,8.288
2018-11-27T06:39:15.382Z,3.538
2018-11-27T06:42:15.091Z,1.925
2018-11-27T06:45:15.941Z,5.525
2018-11-27T06:48:15.741Z,1.788
2018-11-27T06:51:15.495Z,2.925
2018-11-27T06:54:15.263Z,2.700
2018-11-27T06:57:15.092Z,4.013
2018-11-27T07:00:15.724Z,2.375
2018-11-27T07:03:15.174Z,3.250
2018-11-27T07:06:15.069Z,2.138
2018-11-27T07:09:15.921Z,1.900
2018-11-27T07:12:15.830Z,3.537
2018-11-27T07:15:15.747Z,2.625
2018-11-27T07:18:15.541Z,4.200
2018-11-27T07:21:15.195Z,3.338
2018-11-27T07:24:15.909Z,2.450
2018-11-27T07:27:15.705Z,3.425
2018-11-27T07:30:15.462Z,2.538
2018-11-27T07:33:15.450Z,2.450
2018-11-27T07:36:15.308Z,2.388
2018-11-27T07:39:15.092Z,3.625
2018-11-27T07:42:15.095Z,2.675
2018-11-27T07:45:15.811Z,2.287
2018-11-27T07:48:15.646Z,5.162
2018-11-27T07:51:15.679Z,4.375
2018-11-27T07:54:15.471Z,4.500
2018-11-27T07:57:15.351Z,3.950
2018-11-27T08:00:15.230Z,2.225
2018-11-27T08:03:15.278Z,3.187
2018-11-27T08:06:14.987Z,3.025
2018-11-27T08:09:15.892Z,2.613
2018-11-27T08:12:15.634Z,3.788
2018-11-27T08:15:15.517Z,2.450
2018-11-27T08:18:15.823Z,2.375
2018-11-27T08:21:15.575Z,2.312
2018-11-27T08:24:15.336Z,2.900
2018-11-27T08:27:14.933Z,3.050
2018-11-27T08:30:15.586Z,8.150
2018-11-27T08:33:15.609Z,4.638
2018-11-27T08:36:15.608Z,5.938
2018-11-27T08:39:15.324Z,2.662
2018-11-27T08:42:15.128Z,3.112
2018-11-27T08:45:15.940Z,6.600
2018-11-27T08:48:15.816Z,4.275
2018-11-27T08:51:15.670Z,9.675
2018-11-27T08:54:15.371Z,7.738
2018-11-27T08:57:15.106Z,6.725
2018-11-27T09:00:15.975Z,6.412
2018-11-27T09:03:15.860Z,7.263
2018-11-27T09:06:15.636Z,6.275
2018-11-27T09:09:15.384Z,5.350
2018-11-27T09:12:15.050Z,10.588
2018-11-27T09:15:15.910Z,7.538
2018-11-27T09:18:15.838Z,13.525
2018-11-27T09:21:15.779Z,4.600
2018-11-27T09:24:15.646Z,3.025
2018-11-27T09:27:15.628Z,4.300
2018-11-27T09:30:15.349Z,3.800
2018-11-27T09:33:15.460Z,4.287
2018-11-27T09:36:15.184Z,6.400
2018-11-27T09:39:15.962Z,6.650
2018-11-27T09:42:15.916Z,6.537
2018-11-27T09:45:15.799Z,3.938
2018-11-27T09:48:15.735Z,3.800
2018-11-27T09:51:15.510Z,3.375
2018-11-27T09:54:15.248Z,4.438
2018-11-27T09:57:15.196Z,6.275
2018-11-27T10:00:14.955Z,4.700
2018-11-27T10:03:15.120Z,6.938
2018-11-27T10:06:14.975Z,4.025
2018-11-27T10:09:15.842Z,6.213
2018-11-27T10:12:15.536Z,4.875
2018-11-27T10:15:15.263Z,3.888
2018-11-27T10:18:15.129Z,4.775
2018-11-27T10:21:15.976Z,1.450
2018-11-27T10:24:15.925Z,4.137
2018-11-27T10:27:15.685Z,5.338
2018-11-27T10:30:15.573Z,4.888
2018-11-27T10:33:15.741Z,8.662
2018-11-27T10:36:15.560Z,1.787
2018-11-27T10:39:15.410Z,6.100
2018-11-27T10:42:15.862Z,5.350
2018-11-27T10:45:15.983Z,5.312
2018-11-27T10:48:15.713Z,6.825
2018-11-27T10:51:15.643Z,7.725
2018-11-27T10:54:15.478Z,6.012
2018-11-27T10:57:15.482Z,2.500
2018-11-27T11:00:15.450Z,5.250
2018-11-27T11:03:15.787Z,6.275
2018-11-27T11:06:15.411Z,5.838
2018-11-27T11:09:15.490Z,4.750
2018-11-27T11:12:15.181Z,4.700
2018-11-27T11:15:15.250Z,8.363
2018-11-27T11:18:15.561Z,15.037
2018-11-27T11:21:15.554Z,5.525
2018-11-27T11:24:15.193Z,4.812
2018-11-27T11:27:15.226Z,7.587
2018-11-27T11:30:14.968Z,4.612
2018-11-27T11:33:14.979Z,4.425
2018-11-27T11:36:15.705Z,1.938
2018-11-27T11:39:15.451Z,8.287
2018-11-27T11:42:15.156Z,7.688
2018-11-27T11:45:15.154Z,7.650
2018-11-27T11:48:15.100Z,4.237
2018-11-27T11:51:16.075Z,5.625
2018-11-27T11:54:15.110Z,4.400
2018-11-27T11:57:14.965Z,6.812
2018-11-27T12:00:15.832Z,7.838
2018-11-27T12:03:15.449Z,8.188
2018-11-27T12:06:15.279Z,5.988
2018-11-27T12:09:15.113Z,9.450
2018-11-27T12:12:15.904Z,10.562
2018-11-27T12:15:15.520Z,11.887
2018-11-27T12:18:15.378Z,10.738
2018-11-27T12:21:15.131Z,9.787
2018-11-27T12:24:15.016Z,6.775
2018-11-27T12:27:15.965Z,9.062
2018-11-27T12:30:15.930Z,10.412
2018-11-27T12:33:15.752Z,11.438
2018-11-27T12:36:15.537Z,10.600
2018-11-27T12:39:15.453Z,12.162
2018-11-27T12:42:15.173Z,9.775
2018-11-27T12:45:15.070Z,8.350
2018-11-27T12:48:15.840Z,14.950
2018-11-27T12:51:16.350Z,7.713
2018-11-27T12:54:15.449Z,11.262
2018-11-27T12:57:15.451Z,10.038
2018-11-27T13:00:15.424Z,10.150
2018-11-27T13:03:15.804Z,7.250
2018-11-27T13:06:15.507Z,9.463
2018-11-27T13:09:15.234Z,9.512
2018-11-27T13:12:15.991Z,9.887
2018-11-27T13:15:15.683Z,12.625
2018-11-27T13:18:15.455Z,13.763
2018-11-27T13:21:16.361Z,15.012
2018-11-27T13:24:15.156Z,8.650
2018-11-27T13:27:15.207Z,13.950
2018-11-27T13:30:15.103Z,16.163
2018-11-27T13:33:15.715Z,10.375
2018-11-27T13:36:15.962Z,6.775
2018-11-27T13:39:15.839Z,10.113
2018-11-27T13:42:14.977Z,8.125
2018-11-27T13:45:15.891Z,5.550
2018-11-27T13:48:15.622Z,11.463
2018-11-27T13:51:15.368Z,15.237
2018-11-27T13:54:15.082Z,12.050
2018-11-27T13:57:15.130Z,9.738
2018-11-27T14:00:15.817Z,7.475
2018-11-27T14:03:15.716Z,8.238
2018-11-27T14:06:15.717Z,6.513
2018-11-27T14:09:15.436Z,4.838
2018-11-27T14:12:15.224Z,10.188
2018-11-27T14:15:15.053Z,11.463
2018-11-27T14:18:15.274Z,6.575
2018-11-27T14:21:15.103Z,10.988
2018-11-27T14:24:14.986Z,9.113
2018-11-27T14:27:15.907Z,7.125
2018-11-27T14:30:15.504Z,10.100
2018-11-27T14:33:15.121Z,5.025
2018-11-27T14:36:15.066Z,13.800
2018-11-27T14:39:15.038Z,10.725
2018-11-27T14:42:15.869Z,10.875
2018-11-27T14:45:15.063Z,8.250
2018-11-27T14:48:15.383Z,8.875
2018-11-27T14:51:15.233Z,8.863
2018-11-27T14:54:14.982Z,8.812
2018-11-27T14:57:15.845Z,7.650
2018-11-27T15:00:15.559Z,11.062
2018-11-27T15:03:15.238Z,10.812
2018-11-27T15:06:15.497Z,9.363
2018-11-27T15:09:15.221Z,11.800
2018-11-27T15:12:15.071Z,13.500
2018-11-27T15:15:14.991Z,11.225
2018-11-27T15:18:15.233Z,10.550
2018-11-27T15:21:15.124Z,12.438
2018-11-27T15:24:15.842Z,12.287
2018-11-27T15:27:15.704Z,10.562
2018-11-27T15:30:15.527Z,16.775
2018-11-27T15:33:18.639Z,14.000
2018-11-27T15:36:15.940Z,14.950
2018-11-27T15:39:15.708Z,13.250
2018-11-27T15:42:15.434Z,12.275
2018-11-27T15:45:15.301Z,15.162
2018-11-27T15:48:15.735Z,13.125
2018-11-27T15:51:14.955Z,11.463
2018-11-27T15:54:14.988Z,10.162
2018-11-27T15:57:15.032Z,9.537
2018-11-27T16:00:15.744Z,7.938
2018-11-27T16:03:15.460Z,12.200
2018-11-27T16:06:15.173Z,12.600
2018-11-27T16:09:15.127Z,16.212
2018-11-27T16:12:14.946Z,15.150
2018-11-27T16:15:15.672Z,12.875
2018-11-27T16:18:15.478Z,11.413
2018-11-27T16:21:15.165Z,10.838
2018-11-27T16:24:14.944Z,14.262
2018-11-27T16:27:15.918Z,12.188
2018-11-27T16:30:15.626Z,17.525
2018-11-27T16:33:15.560Z,8.125
2018-11-27T16:36:15.330Z,10.012
2018-11-27T16:39:15.178Z,12.213
2018-11-27T16:42:14.950Z,17.100
2018-11-27T16:45:15.165Z,16.363
2018-11-27T16:48:15.103Z,12.488
2018-11-27T16:51:15.729Z,7.750
2018-11-27T16:54:15.487Z,6.238
2018-11-27T16:57:15.233Z,20.762
2018-11-27T17:00:15.162Z,18.425
2018-11-27T17:03:15.411Z,15.188
2018-11-27T17:06:15.708Z,12.312
2018-11-27T17:09:15.484Z,8.688
2018-11-27T17:12:15.366Z,10.975
2018-11-27T17:15:15.115Z,11.238
2018-11-27T17:18:19.733Z,11.387
2018-11-27T17:21:15.526Z,9.925
2018-11-27T17:24:15.285Z,14.188
2018-11-27T17:27:15.216Z,22.363
2018-11-27T17:30:15.873Z,10.963
2018-11-27T17:33:15.713Z,6.037
2018-11-27T17:36:15.185Z,9.838
2018-11-27T17:39:15.199Z,13.388
2018-11-27T17:42:16.014Z,10.575
2018-11-27T17:45:15.848Z,11.550
2018-11-27T17:48:15.817Z,17.962
2018-11-27T17:51:15.625Z,15.938
2018-11-27T17:54:15.676Z,10.000
2018-11-27T17:57:15.430Z,14.738
2018-11-27T18:00:15.286Z,10.312
2018-11-27T18:03:15.045Z,12.350
2018-11-27T18:06:15.394Z,11.725
2018-11-27T18:09:15.290Z,11.513
2018-11-27T18:12:15.117Z,7.350
2018-11-27T18:15:15.317Z,12.938
2018-11-27T18:18:15.352Z,12.300
2018-11-27T18:21:15.263Z,10.875
2018-11-27T18:24:15.139Z,8.637
2018-11-27T18:27:15.017Z,15.500
2018-11-27T18:30:15.759Z,12.725
2018-11-27T18:33:15.613Z,9.075
2018-11-27T18:36:15.308Z,14.275
2018-11-27T18:39:14.967Z,11.288
2018-11-27T18:42:15.723Z,16.788
2018-11-27T18:45:16.037Z,18.725
2018-11-27T18:48:15.203Z,12.387
2018-11-27T18:51:15.835Z,9.462
2018-11-27T18:54:15.861Z,11.250
2018-11-27T18:57:16.745Z,21.138
2018-11-27T19:00:15.703Z,17.913
2018-11-27T19:03:15.844Z,14.438
2018-11-27T19:06:15.414Z,10.512
2018-11-27T19:09:15.290Z,15.287
2018-11-27T19:12:15.248Z,13.188
2018-11-27T19:15:15.645Z,12.387
2018-11-27T19:18:15.394Z,14.762
2018-11-27T19:21:15.612Z,12.662
2018-11-27T19:24:15.467Z,13.087
2018-11-27T19:27:16.134Z,9.512
2018-11-27T19:30:16.255Z,5.925
2018-11-27T19:33:15.872Z,5.512
2018-11-27T19:36:15.683Z,5.250
2018-11-27T19:39:15.919Z,11.288
2018-11-27T19:42:15.917Z,12.287
2018-11-27T19:45:15.728Z,14.637
2018-11-27T19:48:15.609Z,16.938
2018-11-27T19:51:15.342Z,9.925
2018-11-27T19:54:15.481Z,12.062
2018-11-27T19:57:15.454Z,14.913
2018-11-27T20:00:15.286Z,19.562
2018-11-27T20:03:15.088Z,13.912
2018-11-27T20:06:15.883Z,8.088
2018-11-27T20:09:15.767Z,13.438
2018-11-27T20:12:15.618Z,12.525
2018-11-27T20:15:16.641Z,13.713
2018-11-27T20:18:15.786Z,8.175
2018-11-27T20:21:15.940Z,13.262
2018-11-27T20:24:15.623Z,14.050
2018-11-27T20:27:15.427Z,10.000
2018-11-27T20:30:15.332Z,5.275
2018-11-27T20:33:16.057Z,6.525
2018-11-27T20:36:15.969Z,8.012
2018-11-27T20:39:15.867Z,5.412
2018-11-27T20:42:15.628Z,11.988
2018-11-27T20:45:19.450Z,7.937
2018-11-27T20:48:15.621Z,7.325
2018-11-27T20:51:15.676Z,7.425
2018-11-27T20:54:15.731Z,4.700
2018-11-27T20:57:15.760Z,5.425
2018-11-27T21:00:16.958Z,7.588
2018-11-27T21:03:15.758Z,5.200
2018-11-27T21:06:14.969Z,3.463
2018-11-27T21:09:15.023Z,7.875
2018-11-27T21:12:15.047Z,5.875
2018-11-27T21:15:15.877Z,12.363
2018-11-27T21:18:15.929Z,5.650
2018-11-27T21:21:15.874Z,5.088
2018-11-27T21:24:15.735Z,8.150
2018-11-27T21:27:15.608Z,11.425
2018-11-27T21:30:15.344Z,8.625
2018-11-27T21:33:15.593Z,3.575
2018-11-27T21:36:15.538Z,16.675
2018-11-27T21:39:15.269Z,11.637
2018-11-27T21:42:15.153Z,7.375
2018-11-27T21:45:15.297Z,5.412
2018-11-27T21:48:15.382Z,10.600
2018-11-27T21:51:15.832Z,7.700
2018-11-27T21:54:15.909Z,6.575
2018-11-27T21:57:15.525Z,3.625
2018-11-27T22:00:15.446Z,12.675
2018-11-27T22:03:15.419Z,5.412
2018-11-27T22:06:15.745Z,7.537
2018-11-27T22:09:15.592Z,4.975
2018-11-27T22:12:15.677Z,6.513
2018-11-27T22:15:15.798Z,5.850
2018-11-27T22:18:15.393Z,4.463
2018-11-27T22:21:15.298Z,3.312
2018-11-27T22:24:15.137Z,4.938
2018-11-27T22:27:15.043Z,5.525
2018-11-27T22:30:14.973Z,6.387
2018-11-27T22:33:15.117Z,12.163
2018-11-27T22:36:15.837Z,13.175
2018-11-27T22:39:16.014Z,12.637
2018-11-27T22:42:15.052Z,8.950
2018-11-27T22:45:16.074Z,9.488
2018-11-27T22:48:15.951Z,5.837
2018-11-27T22:51:15.707Z,6.362
2018-11-27T22:54:15.436Z,4.662
2018-11-27T22:57:15.342Z,2.900
2018-11-27T23:00:15.072Z,5.613
2018-11-27T23:03:15.884Z,4.925
2018-11-27T23:06:15.536Z,5.575
2018-11-27T23:09:15.857Z,6.037
2018-11-27T23:12:15.715Z,5.787
2018-11-27T23:15:15.551Z,3.300
2018-11-27T23:18:15.488Z,10.350
2018-11-27T23:21:15.387Z,12.850
2018-11-27T23:24:15.221Z,6.888
2018-11-27T23:27:15.119Z,12.113
2018-11-27T23:30:15.695Z,15.037
2018-11-27T23:33:15.261Z,4.713
2018-11-27T23:36:14.870Z,12.637
2018-11-27T23:39:15.721Z,6.925
2018-11-27T23:42:15.435Z,15.088
2018-11-27T23:45:15.266Z,14.325
2018-11-27T23:48:15.312Z,11.112
2018-11-27T23:51:14.930Z,19.725
2018-11-27T23:54:15.605Z,6.975
2018-11-27T23:57:15.488Z,5.425
